createdAt,value
2023-03-02T00:02:04.248Z,76.70
2023-03-02T00:04:45.108Z,57.03
2023-03-02T00:07:18.285Z,46.13
2023-03-02T00:09:45.727Z,58.47
2023-03-02T00:12:13.731Z,63.20
2023-03-02T00:14:40.866Z,130.47
2023-03-02T00:17:08.079Z,81.20
2023-03-02T00:19:36.566Z,68.10
2023-03-02T00:22:04.251Z,75.87
2023-03-02T00:24:31.457Z,78.33
2023-03-02T00:26:58.597Z,55.73
2023-03-02T00:29:25.845Z,61.67
2023-03-02T00:31:53.097Z,54.43
2023-03-02T00:34:20.443Z,38.73
2023-03-02T00:36:49.487Z,128.77
2023-03-02T00:39:20.134Z,73.70
2023-03-02T00:41:48.603Z,44.43
2023-03-02T00:44:17.658Z,62.80
2023-03-02T00:46:45.786Z,51.07
2023-03-02T00:49:13.350Z,43.67
2023-03-02T00:51:40.455Z,70.83
2023-03-02T00:54:07.669Z,87.33
2023-03-02T00:56:35.048Z,63.83
2023-03-02T00:59:36.014Z,39.83
2023-03-02T01:02:14.856Z,47.97
2023-03-02T01:04:43.925Z,64.03
2023-03-02T01:07:15.690Z,58.07
2023-03-02T01:09:44.738Z,51.73
2023-03-02T01:12:12.687Z,35.57
2023-03-02T01:14:44.925Z,58.17
2023-03-02T01:17:13.236Z,74.13
2023-03-02T01:19:41.500Z,131.80
2023-03-02T01:22:09.466Z,51.60
2023-03-02T01:24:36.634Z,49.17
2023-03-02T01:27:04.118Z,48.83
2023-03-02T01:29:31.417Z,70.73
2023-03-02T01:31:59.824Z,53.00
2023-03-02T01:34:27.077Z,57.87
2023-03-02T01:36:54.167Z,61.13
2023-03-02T01:39:22.524Z,66.30
2023-03-02T01:41:51.922Z,45.10
2023-03-02T01:44:52.023Z,58.87
2023-03-02T01:47:37.176Z,57.70
2023-03-02T01:50:24.977Z,51.43
2023-03-02T01:52:56.761Z,63.93
2023-03-02T01:55:29.563Z,43.10
2023-03-02T01:57:58.170Z,56.00
2023-03-02T02:00:29.528Z,77.73
2023-03-02T02:03:08.942Z,44.40
2023-03-02T02:05:43.036Z,66.20
2023-03-02T02:08:10.855Z,68.90
2023-03-02T02:10:39.904Z,84.03
2023-03-02T02:13:11.131Z,50.00
2023-03-02T02:15:39.103Z,34.90
2023-03-02T02:18:06.533Z,41.23
2023-03-02T02:20:45.270Z,33.77
2023-03-02T02:23:39.992Z,30.70
2023-03-02T02:26:44.942Z,43.80
2023-03-02T02:29:25.364Z,53.03
2023-03-02T02:32:02.691Z,76.20
2023-03-02T02:34:38.021Z,49.47
2023-03-02T02:37:19.379Z,48.97
2023-03-02T02:39:49.313Z,85.60
2023-03-02T02:42:33.279Z,44.73
2023-03-02T02:45:07.171Z,74.87
2023-03-02T02:47:35.187Z,39.77
2023-03-02T02:50:02.532Z,29.37
2023-03-02T02:52:30.201Z,56.40
2023-03-02T02:54:59.167Z,45.20
2023-03-02T02:57:29.884Z,73.60
2023-03-02T03:00:01.532Z,67.57
2023-03-02T03:02:39.908Z,59.93
2023-03-02T03:05:14.122Z,49.57
2023-03-02T03:07:41.423Z,85.57
2023-03-02T03:10:23.757Z,72.77
2023-03-02T03:12:51.991Z,46.43
2023-03-02T03:15:21.165Z,32.33
2023-03-02T03:17:58.209Z,33.53
2023-03-02T03:20:28.414Z,28.90
2023-03-02T03:22:55.710Z,29.67
2023-03-02T03:25:26.477Z,30.37
2023-03-02T03:27:54.996Z,49.77
2023-03-02T03:30:22.653Z,48.20
2023-03-02T03:32:50.175Z,44.77
2023-03-02T03:35:17.678Z,41.50
2023-03-02T03:37:45.788Z,27.97
2023-03-02T03:40:15.576Z,38.27
2023-03-02T03:42:44.703Z,50.90
2023-03-02T03:45:12.873Z,60.67
2023-03-02T03:47:41.378Z,37.77
2023-03-02T03:50:10.604Z,30.93
2023-03-02T03:52:38.362Z,47.93
2023-03-02T03:55:23.336Z,32.73
2023-03-02T03:57:51.046Z,45.83
2023-03-02T04:00:18.941Z,44.23
2023-03-02T04:02:54.853Z,40.17
2023-03-02T04:05:23.070Z,40.43
2023-03-02T04:07:53.272Z,37.47
2023-03-02T04:10:21.873Z,40.17
2023-03-02T04:12:51.267Z,41.77
2023-03-02T04:15:18.850Z,26.33
2023-03-02T04:17:47.960Z,29.80
2023-03-02T04:20:19.548Z,55.23
2023-03-02T04:22:52.489Z,35.17
2023-03-02T04:25:24.280Z,32.40
2023-03-02T04:27:54.983Z,47.03
2023-03-02T04:30:26.199Z,35.80
2023-03-02T04:32:54.637Z,31.10
2023-03-02T04:35:22.611Z,28.60
2023-03-02T04:37:49.759Z,25.20
2023-03-02T04:40:17.608Z,33.90
2023-03-02T04:42:44.804Z,49.47
2023-03-02T04:45:13.437Z,32.40
2023-03-02T04:47:41.289Z,27.07
2023-03-02T04:50:11.237Z,27.20
2023-03-02T04:52:38.365Z,29.60
2023-03-02T04:55:06.869Z,32.80
2023-03-02T04:57:34.069Z,40.73
2023-03-02T05:00:01.160Z,24.63
2023-03-02T05:02:28.309Z,37.20
2023-03-02T05:04:55.636Z,67.23
2023-03-02T05:07:22.859Z,51.53
2023-03-02T05:09:49.887Z,29.57
2023-03-02T05:12:19.155Z,40.87
2023-03-02T05:14:46.325Z,29.33
2023-03-02T05:17:13.665Z,41.43
2023-03-02T05:19:40.772Z,37.27
2023-03-02T05:22:07.877Z,23.57
2023-03-02T05:24:35.681Z,51.57
2023-03-02T05:27:02.876Z,49.47
2023-03-02T05:29:29.996Z,29.17
2023-03-02T05:31:57.302Z,39.37
2023-03-02T05:34:24.449Z,34.10
2023-03-02T05:36:51.560Z,43.23
2023-03-02T05:39:18.592Z,21.40
2023-03-02T05:41:45.728Z,47.60
2023-03-02T05:44:12.972Z,32.37
2023-03-02T05:46:40.583Z,27.80
2023-03-02T05:49:07.992Z,42.83
2023-03-02T05:51:35.117Z,30.67
2023-03-02T05:54:02.456Z,57.83
2023-03-02T05:56:30.236Z,25.97
2023-03-02T05:58:57.373Z,36.83
2023-03-02T06:01:24.480Z,29.83
2023-03-02T06:03:51.598Z,55.43
2023-03-02T06:06:18.771Z,33.10
2023-03-02T06:08:45.938Z,62.57
2023-03-02T06:11:13.117Z,42.70
2023-03-02T06:13:40.657Z,28.40
2023-03-02T06:16:09.030Z,29.33
2023-03-02T06:18:41.270Z,28.67
2023-03-02T06:21:09.130Z,33.93
2023-03-02T06:23:36.724Z,43.13
2023-03-02T06:26:12.178Z,37.37
2023-03-02T06:28:52.268Z,35.23
2023-03-02T06:31:22.100Z,58.03
2023-03-02T06:33:49.960Z,39.70
2023-03-02T06:36:17.721Z,23.60
2023-03-02T06:38:45.330Z,39.27
2023-03-02T06:41:12.916Z,26.20
2023-03-02T06:43:40.272Z,25.93
2023-03-02T06:46:08.025Z,17.43
2023-03-02T06:48:35.393Z,24.27
2023-03-02T06:51:02.934Z,28.00
2023-03-02T06:53:30.322Z,28.27
2023-03-02T06:55:57.660Z,23.87
2023-03-02T06:58:25.210Z,21.77
2023-03-02T07:00:52.556Z,23.87
2023-03-02T07:03:20.214Z,24.27
2023-03-02T07:05:49.115Z,30.83
2023-03-02T07:08:16.528Z,30.10
2023-03-02T07:10:43.901Z,20.47
2023-03-02T07:13:11.355Z,13.90
2023-03-02T07:15:41.973Z,22.07
2023-03-02T07:18:09.530Z,32.53
2023-03-02T07:20:36.984Z,44.50
2023-03-02T07:23:05.837Z,22.50
2023-03-02T07:25:33.586Z,18.40
2023-03-02T07:28:00.950Z,19.87
2023-03-02T07:30:28.400Z,29.47
2023-03-02T07:32:55.691Z,14.23
2023-03-02T07:35:23.178Z,11.53
2023-03-02T07:37:52.757Z,12.60
2023-03-02T07:40:20.278Z,12.97
2023-03-02T07:42:47.958Z,16.80
2023-03-02T07:45:17.037Z,14.50
2023-03-02T07:47:44.630Z,19.57
2023-03-02T07:50:12.537Z,12.93
2023-03-02T07:52:39.937Z,18.03
2023-03-02T07:55:08.478Z,12.93
2023-03-02T07:57:36.407Z,13.47
2023-03-02T08:00:05.500Z,13.33
2023-03-02T08:02:42.937Z,15.57
2023-03-02T08:05:12.385Z,13.43
2023-03-02T08:07:40.973Z,12.27
2023-03-02T08:10:09.466Z,14.03
2023-03-02T08:12:36.844Z,12.40
2023-03-02T08:15:05.161Z,14.40
2023-03-02T08:17:32.758Z,13.80
2023-03-02T08:20:00.222Z,10.57
2023-03-02T08:22:27.786Z,14.67
2023-03-02T08:24:55.282Z,12.17
2023-03-02T08:27:23.059Z,13.43
2023-03-02T08:30:00.539Z,11.93
2023-03-02T08:32:35.556Z,16.10
2023-03-02T08:35:03.986Z,12.63
2023-03-02T08:37:31.758Z,13.77
2023-03-02T08:39:59.262Z,13.27
2023-03-02T08:42:26.852Z,14.53
2023-03-02T08:44:54.190Z,19.10
2023-03-02T08:47:21.514Z,14.73
2023-03-02T08:49:50.570Z,21.20
2023-03-02T08:52:18.444Z,16.23
2023-03-02T08:54:46.548Z,18.87
2023-03-02T08:57:14.022Z,15.20
2023-03-02T08:59:41.660Z,21.43
2023-03-02T09:02:12.225Z,17.80
2023-03-02T09:04:39.934Z,17.93
2023-03-02T09:07:07.719Z,13.97
2023-03-02T09:09:35.304Z,12.17
2023-03-02T09:12:04.028Z,10.70
2023-03-02T09:14:31.529Z,10.77
2023-03-02T09:16:59.181Z,10.70
2023-03-02T09:19:26.955Z,11.77
2023-03-02T09:21:54.437Z,11.93
2023-03-02T09:24:21.980Z,11.17
2023-03-02T09:26:49.607Z,12.53
2023-03-02T09:29:17.101Z,9.40
2023-03-02T09:31:44.541Z,10.70
2023-03-02T09:34:12.389Z,11.87
2023-03-02T09:36:39.792Z,17.57
2023-03-02T09:39:12.297Z,14.40
2023-03-02T09:42:04.384Z,12.23
2023-03-02T09:45:02.491Z,13.10
2023-03-02T09:48:30.470Z,11.53
2023-03-02T09:51:57.849Z,14.57
2023-03-02T09:55:19.103Z,11.73
2023-03-02T09:57:47.729Z,12.30
2023-03-02T10:00:30.936Z,12.60
2023-03-02T10:03:16.490Z,97.10
2023-03-02T10:05:56.287Z,14.17
2023-03-02T10:08:29.892Z,13.73
2023-03-02T10:11:16.890Z,15.03
2023-03-02T10:13:56.608Z,11.50
2023-03-02T10:16:38.688Z,8.13
2023-03-02T10:19:26.495Z,10.43
2023-03-02T10:22:30.243Z,11.27
2023-03-02T10:25:14.523Z,13.33
2023-03-02T10:27:48.073Z,11.50
2023-03-02T10:30:32.102Z,10.27
2023-03-02T10:33:17.657Z,13.27
2023-03-02T10:35:52.781Z,13.90
2023-03-02T10:38:25.320Z,11.70
2023-03-02T10:41:01.400Z,13.10
2023-03-02T10:43:51.849Z,14.33
2023-03-02T10:46:19.473Z,11.07
2023-03-02T10:48:56.311Z,15.30
2023-03-02T10:51:23.792Z,17.03
2023-03-02T10:54:05.569Z,17.67
2023-03-02T10:56:34.405Z,16.07
2023-03-02T10:59:13.510Z,18.97
2023-03-02T11:01:41.006Z,20.53
2023-03-02T11:04:15.716Z,18.47
2023-03-02T11:06:43.221Z,17.30
2023-03-02T11:09:15.128Z,16.60
2023-03-02T11:11:54.704Z,20.10
2023-03-02T11:14:25.566Z,18.13
2023-03-02T11:16:53.848Z,21.03
2023-03-02T11:19:35.564Z,16.70
2023-03-02T11:22:38.209Z,14.70
2023-03-02T11:25:23.886Z,19.30
2023-03-02T11:28:03.410Z,19.87
2023-03-02T11:30:34.468Z,21.27
2023-03-02T11:33:56.101Z,36.20
2023-03-02T11:36:40.270Z,17.97
2023-03-02T11:39:17.992Z,21.07
2023-03-02T11:41:45.762Z,18.90
2023-03-02T11:44:20.640Z,20.50
2023-03-02T11:47:00.624Z,22.50
2023-03-02T11:49:48.678Z,25.00
2023-03-02T11:52:26.928Z,25.83
2023-03-02T11:55:16.565Z,22.87
2023-03-02T11:57:55.595Z,22.20
2023-03-02T12:00:44.602Z,23.10
2023-03-02T12:03:15.035Z,21.30
2023-03-02T12:05:47.666Z,22.10
2023-03-02T12:08:21.336Z,25.70
2023-03-02T12:11:24.155Z,24.20
2023-03-02T12:14:06.656Z,30.17
2023-03-02T12:16:41.387Z,29.93
2023-03-02T12:19:17.805Z,29.00
2023-03-02T12:22:09.282Z,30.27
2023-03-02T12:24:40.451Z,29.63
2023-03-02T12:27:13.635Z,29.93
2023-03-02T12:29:43.466Z,27.33
2023-03-02T12:32:25.961Z,30.97
2023-03-02T12:35:08.757Z,27.37
2023-03-02T12:38:01.813Z,27.63
2023-03-02T12:41:31.828Z,27.97
2023-03-02T12:44:34.422Z,24.50
2023-03-02T12:47:03.100Z,27.03
2023-03-02T12:50:05.884Z,24.13
2023-03-02T12:52:36.585Z,24.50
2023-03-02T12:55:10.035Z,24.30
2023-03-02T12:57:54.138Z,23.03
2023-03-02T13:00:27.520Z,25.40
2023-03-02T13:02:57.327Z,25.67
2023-03-02T13:05:29.779Z,27.77
2023-03-02T13:08:01.651Z,26.90
2023-03-02T13:10:41.235Z,27.60
2023-03-02T13:13:21.015Z,28.23
2023-03-02T13:16:23.822Z,31.93
2023-03-02T13:18:57.149Z,34.60
2023-03-02T13:21:37.776Z,29.80
2023-03-02T13:24:36.039Z,32.67
2023-03-02T13:27:16.953Z,33.33
2023-03-02T13:29:45.900Z,29.10
2023-03-02T13:32:19.195Z,36.70
2023-03-02T13:34:50.309Z,33.77
2023-03-02T13:37:39.379Z,21.57
2023-03-02T13:40:42.868Z,24.03
2023-03-02T13:43:39.364Z,28.10
2023-03-02T13:46:15.813Z,26.83
2023-03-02T13:49:12.007Z,24.30
2023-03-02T13:51:48.863Z,23.93
2023-03-02T13:54:28.951Z,34.40
2023-03-02T13:56:59.153Z,22.63
2023-03-02T13:59:27.005Z,23.10
2023-03-02T14:01:54.761Z,22.60
2023-03-02T14:04:23.668Z,25.07
2023-03-02T14:06:54.067Z,21.03
2023-03-02T14:09:22.237Z,18.80
2023-03-02T14:11:53.610Z,16.07
2023-03-02T14:14:26.709Z,18.53
2023-03-02T14:16:54.201Z,18.33
2023-03-02T14:19:21.793Z,21.40
2023-03-02T14:21:49.409Z,19.20
2023-03-02T14:24:16.845Z,25.40
2023-03-02T14:26:48.061Z,21.30
2023-03-02T14:29:32.420Z,22.80
2023-03-02T14:32:06.755Z,23.40
2023-03-02T14:34:37.274Z,24.77
2023-03-02T14:37:10.721Z,23.07
2023-03-02T14:39:54.178Z,22.03
2023-03-02T14:42:23.540Z,23.73
2023-03-02T14:44:52.303Z,28.17
2023-03-02T14:47:19.932Z,29.27
2023-03-02T14:49:49.442Z,24.60
2023-03-02T14:52:44.712Z,27.80
2023-03-02T14:55:31.315Z,20.77
2023-03-02T14:58:17.288Z,27.17
2023-03-02T15:00:45.383Z,26.47
2023-03-02T15:03:24.587Z,26.47
2023-03-02T15:06:00.920Z,26.73
2023-03-02T15:08:30.183Z,30.33
2023-03-02T15:10:58.122Z,31.50
2023-03-02T15:13:25.556Z,26.70
2023-03-02T15:15:53.148Z,23.33
2023-03-02T15:18:20.530Z,22.77
2023-03-02T15:20:48.258Z,22.60
2023-03-02T15:23:15.706Z,20.90
2023-03-02T15:25:43.151Z,21.20
2023-03-02T15:28:10.807Z,21.97
2023-03-02T15:30:38.620Z,20.60
2023-03-02T15:33:06.589Z,19.27
2023-03-02T15:35:35.291Z,101.83
2023-03-02T15:38:04.616Z,19.03
2023-03-02T15:40:33.833Z,16.87
2023-03-02T15:43:01.467Z,19.67
2023-03-02T15:45:29.765Z,19.73
2023-03-02T15:47:57.623Z,21.97
2023-03-02T15:50:25.167Z,19.67
2023-03-02T15:52:52.581Z,21.07
2023-03-02T15:55:20.082Z,21.20
2023-03-02T15:57:47.797Z,19.07
2023-03-02T16:00:16.146Z,16.07
2023-03-02T16:02:43.724Z,16.10
2023-03-02T16:05:11.135Z,17.57
2023-03-02T16:07:38.623Z,18.27
2023-03-02T16:10:07.259Z,17.23
2023-03-02T16:12:37.576Z,15.63
2023-03-02T16:15:05.594Z,15.57
2023-03-02T16:17:33.128Z,17.50
2023-03-02T16:20:00.722Z,15.10
2023-03-02T16:22:28.343Z,14.57
2023-03-02T16:24:55.896Z,16.67
2023-03-02T16:27:23.438Z,13.37
2023-03-02T16:29:51.094Z,15.37
2023-03-02T16:32:19.469Z,13.87
2023-03-02T16:34:47.148Z,15.70
2023-03-02T16:37:14.846Z,18.23
2023-03-02T16:39:42.596Z,15.00
2023-03-02T16:42:09.982Z,22.13
2023-03-02T16:44:38.062Z,18.47
2023-03-02T16:47:05.568Z,18.50
2023-03-02T16:49:33.053Z,18.77
2023-03-02T16:52:00.512Z,17.97
2023-03-02T16:54:28.978Z,19.27
2023-03-02T16:56:56.444Z,19.73
2023-03-02T16:59:23.903Z,21.00
2023-03-02T17:01:51.346Z,21.67
2023-03-02T17:04:19.004Z,20.03
2023-03-02T17:07:03.410Z,23.97
2023-03-02T17:09:33.787Z,24.83
2023-03-02T17:12:01.214Z,26.43
2023-03-02T17:14:29.148Z,32.43
2023-03-02T17:16:57.002Z,28.20
2023-03-02T17:19:26.869Z,24.30
2023-03-02T17:21:58.413Z,23.10
2023-03-02T17:24:27.437Z,25.60
2023-03-02T17:26:55.657Z,20.70
2023-03-02T17:29:25.844Z,19.97
2023-03-02T17:31:53.498Z,16.53
2023-03-02T17:34:21.245Z,16.37
2023-03-02T17:36:48.770Z,18.77
2023-03-02T17:39:16.443Z,18.00
2023-03-02T17:41:43.983Z,15.83
2023-03-02T17:44:11.795Z,21.33
2023-03-02T17:46:39.502Z,18.13
2023-03-02T17:49:07.060Z,16.23
2023-03-02T17:51:34.688Z,13.57
2023-03-02T17:54:02.273Z,18.73
2023-03-02T17:56:30.436Z,17.53
2023-03-02T17:59:01.925Z,15.43
2023-03-02T18:01:30.002Z,15.47
2023-03-02T18:03:58.064Z,12.67
2023-03-02T18:06:25.703Z,14.70
2023-03-02T18:08:53.374Z,10.67
2023-03-02T18:11:23.586Z,11.00
2023-03-02T18:13:56.225Z,12.10
2023-03-02T18:16:26.718Z,12.83
2023-03-02T18:18:55.019Z,20.83
2023-03-02T18:21:23.483Z,20.80
2023-03-02T18:23:51.073Z,14.97
2023-03-02T18:26:19.347Z,15.87
2023-03-02T18:28:46.865Z,21.17
2023-03-02T18:31:18.996Z,26.10
2023-03-02T18:34:03.443Z,28.90
2023-03-02T18:36:30.994Z,35.53
2023-03-02T18:38:58.592Z,39.13
2023-03-02T18:41:25.854Z,20.63
2023-03-02T18:43:53.391Z,35.53
2023-03-02T18:46:26.689Z,30.10
2023-03-02T18:48:55.506Z,46.83
2023-03-02T18:51:25.073Z,49.37
2023-03-02T18:53:53.433Z,28.33
2023-03-02T18:56:22.126Z,33.57
2023-03-02T18:58:49.766Z,23.07
2023-03-02T19:01:18.446Z,97.33
2023-03-02T19:03:46.181Z,64.50
2023-03-02T19:06:14.240Z,47.03
2023-03-02T19:08:41.939Z,53.77
2023-03-02T19:11:11.779Z,52.37
2023-03-02T19:13:39.260Z,53.37
2023-03-02T19:16:07.320Z,70.50
2023-03-02T19:18:34.911Z,52.97
2023-03-02T19:21:04.902Z,51.13
2023-03-02T19:23:33.141Z,71.93
2023-03-02T19:26:00.998Z,37.67
2023-03-02T19:28:28.417Z,46.60
2023-03-02T19:30:56.205Z,26.93
2023-03-02T19:33:24.848Z,26.53
2023-03-02T19:35:52.451Z,30.37
2023-03-02T19:38:19.989Z,47.07
2023-03-02T19:40:47.327Z,83.77
2023-03-02T19:43:14.894Z,29.57
2023-03-02T19:45:42.300Z,32.10
2023-03-02T19:48:13.782Z,36.20
2023-03-02T19:50:41.513Z,54.83
2023-03-02T19:53:09.985Z,23.27
2023-03-02T19:55:37.656Z,45.63
2023-03-02T19:58:07.805Z,30.47
2023-03-02T20:00:38.267Z,25.10
2023-03-02T20:03:08.522Z,55.73
2023-03-02T20:05:38.195Z,29.00
2023-03-02T20:08:07.126Z,31.07
2023-03-02T20:10:46.672Z,37.20
2023-03-02T20:13:14.399Z,34.77
2023-03-02T20:15:45.380Z,28.93
2023-03-02T20:18:17.619Z,28.40
2023-03-02T20:20:45.732Z,23.57
2023-03-02T20:23:15.043Z,24.00
2023-03-02T20:25:42.456Z,21.43
2023-03-02T20:28:12.811Z,23.40
2023-03-02T20:30:51.777Z,21.27
2023-03-02T20:33:22.953Z,20.23
2023-03-02T20:35:52.033Z,18.57
2023-03-02T20:38:32.689Z,17.47
2023-03-02T20:41:01.411Z,18.40
2023-03-02T20:43:29.786Z,19.37
2023-03-02T20:45:58.355Z,23.23
2023-03-02T20:48:26.405Z,21.73
2023-03-02T20:50:54.812Z,18.60
2023-03-02T20:53:23.451Z,18.60
2023-03-02T20:55:50.845Z,17.00
2023-03-02T20:58:18.477Z,15.10
2023-03-02T21:00:46.374Z,14.97
2023-03-02T21:03:14.746Z,14.37
2023-03-02T21:05:43.253Z,15.87
2023-03-02T21:08:14.805Z,15.70
2023-03-02T21:10:43.915Z,15.43
2023-03-02T21:13:12.180Z,14.83
2023-03-02T21:15:41.073Z,14.80
2023-03-02T21:18:08.714Z,14.43
2023-03-02T21:20:36.076Z,13.60
2023-03-02T21:23:04.282Z,12.20
2023-03-02T21:25:32.377Z,11.80
2023-03-02T21:28:00.203Z,11.53
2023-03-02T21:30:33.980Z,12.13
2023-03-02T21:33:02.731Z,12.33
2023-03-02T21:35:34.950Z,9.77
2023-03-02T21:38:04.864Z,11.93
2023-03-02T21:40:38.006Z,12.60
2023-03-02T21:43:06.745Z,10.77
2023-03-02T21:45:36.063Z,10.27
2023-03-02T21:48:05.177Z,11.00
2023-03-02T21:50:36.278Z,10.03
2023-03-02T21:53:04.330Z,9.30
2023-03-02T21:55:32.805Z,9.37
2023-03-02T21:58:01.398Z,9.63
2023-03-02T22:00:35.837Z,8.60
2023-03-02T22:03:03.768Z,9.07
2023-03-02T22:05:33.348Z,9.83
2023-03-02T22:08:01.048Z,10.03
2023-03-02T22:10:37.113Z,10.17
2023-03-02T22:13:14.041Z,9.33
2023-03-02T22:15:42.201Z,9.90
2023-03-02T22:18:22.255Z,9.47
2023-03-02T22:20:54.142Z,9.50
2023-03-02T22:23:26.236Z,11.40
2023-03-02T22:26:01.845Z,9.83
2023-03-02T22:28:29.583Z,9.67
2023-03-02T22:31:00.862Z,9.70
2023-03-02T22:33:29.649Z,9.33
2023-03-02T22:36:11.402Z,8.53
2023-03-02T22:38:39.151Z,10.07
2023-03-02T22:41:14.417Z,8.80
2023-03-02T22:43:42.292Z,10.33
2023-03-02T22:46:16.119Z,11.63
2023-03-02T22:48:52.245Z,12.13
2023-03-02T22:51:28.463Z,10.33
2023-03-02T22:53:59.355Z,10.80
2023-03-02T22:56:32.570Z,12.00
2023-03-02T22:59:21.876Z,11.30
2023-03-02T23:01:50.075Z,13.33
2023-03-02T23:04:27.497Z,13.97
2023-03-02T23:07:00.671Z,12.93
2023-03-02T23:09:34.879Z,15.47
2023-03-02T23:12:14.392Z,14.23
2023-03-02T23:14:52.419Z,24.33
2023-03-02T23:17:31.928Z,41.97
2023-03-02T23:19:59.635Z,25.33
2023-03-02T23:22:29.786Z,63.17
2023-03-02T23:24:57.352Z,64.67
2023-03-02T23:27:25.435Z,28.70
2023-03-02T23:29:52.845Z,37.43
2023-03-02T23:32:20.522Z,33.73
2023-03-02T23:34:48.072Z,54.10
2023-03-02T23:37:15.468Z,41.07
2023-03-02T23:39:45.651Z,35.63
2023-03-02T23:42:13.431Z,52.10
2023-03-02T23:44:40.816Z,38.50
2023-03-02T23:47:08.134Z,26.90
2023-03-02T23:49:35.521Z,28.23
2023-03-02T23:52:03.676Z,28.73
2023-03-02T23:54:31.136Z,49.03
2023-03-02T23:56:58.554Z,68.70
2023-03-02T23:59:26.022Z,45.53
